sensor_id;sensor_type;location;lat;lon;timestamp;pressure;altitude;pressure_sealevel;temperature;humidity
64228;BME280;50546;49.146;10.616;2022-10-31T00:02:21;96784.19;;;12.08;86.75
64228;BME280;50546;49.146;10.616;2022-10-31T00:04:46;96779.28;;;12.10;87.77
64228;BME280;50546;49.146;10.616;2022-10-31T00:07:12;96784.06;;;12.30;87.56
64228;BME280;50546;49.146;10.616;2022-10-31T00:09:37;96790.47;;;12.43;85.63
64228;BME280;50546;49.146;10.616;2022-10-31T00:12:02;96789.66;;;12.51;84.23
64228;BME280;50546;49.146;10.616;2022-10-31T00:14:28;96786.03;;;12.64;83.48
64228;BME280;50546;49.146;10.616;2022-10-31T00:16:53;96792.38;;;12.60;82.80
64228;BME280;50546;49.146;10.616;2022-10-31T00:19:18;96790.81;;;12.67;82.12
64228;BME280;50546;49.146;10.616;2022-10-31T00:21:43;96801.00;;;12.79;81.39
64228;BME280;50546;49.146;10.616;2022-10-31T00:24:10;96804.47;;;12.62;81.73
64228;BME280;50546;49.146;10.616;2022-10-31T00:26:35;96811.94;;;12.74;81.72
64228;BME280;50546;49.146;10.616;2022-10-31T00:29:00;96808.78;;;12.81;81.20
64228;BME280;50546;49.146;10.616;2022-10-31T00:31:26;96809.72;;;12.76;81.02
64228;BME280;50546;49.146;10.616;2022-10-31T00:33:51;96800.31;;;12.39;82.62
64228;BME280;50546;49.146;10.616;2022-10-31T00:36:18;96805.50;;;12.26;83.88
64228;BME280;50546;49.146;10.616;2022-10-31T00:38:45;96806.19;;;12.32;83.12
64228;BME280;50546;49.146;10.616;2022-10-31T00:41:12;96806.03;;;12.37;83.53
64228;BME280;50546;49.146;10.616;2022-10-31T00:43:37;96797.44;;;12.44;82.93
64228;BME280;50546;49.146;10.616;2022-10-31T00:46:03;96801.09;;;12.48;81.92
64228;BME280;50546;49.146;10.616;2022-10-31T00:48:28;96803.66;;;12.36;83.26
64228;BME280;50546;49.146;10.616;2022-10-31T00:50:54;96805.88;;;12.42;84.62
64228;BME280;50546;49.146;10.616;2022-10-31T00:53:19;96801.31;;;12.60;83.79
64228;BME280;50546;49.146;10.616;2022-10-31T00:55:45;96792.72;;;12.58;83.48
64228;BME280;50546;49.146;10.616;2022-10-31T00:58:10;96798.59;;;12.77;82.87
64228;BME280;50546;49.146;10.616;2022-10-31T01:00:35;96796.69;;;12.78;82.16
64228;BME280;50546;49.146;10.616;2022-10-31T01:03:01;96800.03;;;12.92;82.24
64228;BME280;50546;49.146;10.616;2022-10-31T01:05:26;96799.38;;;12.69;82.65
64228;BME280;50546;49.146;10.616;2022-10-31T01:07:51;96805.91;;;12.68;82.48
64228;BME280;50546;49.146;10.616;2022-10-31T01:10:17;96804.34;;;12.67;82.17
64228;BME280;50546;49.146;10.616;2022-10-31T01:12:44;96805.09;;;12.50;81.85
64228;BME280;50546;49.146;10.616;2022-10-31T01:15:12;96812.72;;;12.48;81.17
64228;BME280;50546;49.146;10.616;2022-10-31T01:17:38;96809.50;;;12.38;81.27
64228;BME280;50546;49.146;10.616;2022-10-31T01:20:05;96808.09;;;12.40;80.98
64228;BME280;50546;49.146;10.616;2022-10-31T01:22:31;96802.69;;;12.32;81.08
64228;BME280;50546;49.146;10.616;2022-10-31T01:24:56;96805.22;;;12.28;82.07
64228;BME280;50546;49.146;10.616;2022-10-31T01:27:22;96800.44;;;12.34;81.57
64228;BME280;50546;49.146;10.616;2022-10-31T01:29:47;96802.81;;;12.26;81.46
64228;BME280;50546;49.146;10.616;2022-10-31T01:32:12;96802.34;;;12.24;81.02
64228;BME280;50546;49.146;10.616;2022-10-31T01:34:38;96799.31;;;12.26;81.35
64228;BME280;50546;49.146;10.616;2022-10-31T01:37:03;96801.91;;;12.40;81.01
64228;BME280;50546;49.146;10.616;2022-10-31T01:39:28;96805.22;;;12.37;80.88
64228;BME280;50546;49.146;10.616;2022-10-31T01:41:55;96795.38;;;12.32;80.99
64228;BME280;50546;49.146;10.616;2022-10-31T01:47:03;96799.59;;;12.07;82.21
64228;BME280;50546;49.146;10.616;2022-10-31T01:49:38;96797.22;;;12.14;82.54
64228;BME280;50546;49.146;10.616;2022-10-31T01:57:27;96789.47;;;12.30;80.65
64228;BME280;50546;49.146;10.616;2022-10-31T01:59:57;96792.00;;;12.18;80.69
64228;BME280;50546;49.146;10.616;2022-10-31T02:02:25;96796.44;;;12.14;80.56
64228;BME280;50546;49.146;10.616;2022-10-31T02:04:50;96791.72;;;12.28;79.90
64228;BME280;50546;49.146;10.616;2022-10-31T02:07:24;96790.41;;;12.17;80.34
64228;BME280;50546;49.146;10.616;2022-10-31T02:09:51;96794.00;;;11.95;81.02
64228;BME280;50546;49.146;10.616;2022-10-31T02:12:18;96786.81;;;11.90;80.76
64228;BME280;50546;49.146;10.616;2022-10-31T02:14:44;96784.63;;;11.92;80.75
64228;BME280;50546;49.146;10.616;2022-10-31T02:17:09;96787.34;;;12.01;80.17
64228;BME280;50546;49.146;10.616;2022-10-31T02:22:18;96784.22;;;11.76;81.09
64228;BME280;50546;49.146;10.616;2022-10-31T02:33:23;96787.63;;;11.60;80.09
64228;BME280;50546;49.146;10.616;2022-10-31T02:36:00;96778.94;;;11.71;79.93
64228;BME280;50546;49.146;10.616;2022-10-31T02:46:19;96784.69;;;11.47;80.67
64228;BME280;50546;49.146;10.616;2022-10-31T02:48:51;96783.16;;;11.55;79.79
64228;BME280;50546;49.146;10.616;2022-10-31T02:51:18;96778.22;;;11.57;80.48
64228;BME280;50546;49.146;10.616;2022-10-31T02:53:44;96782.34;;;11.54;80.32
64228;BME280;50546;49.146;10.616;2022-10-31T02:56:15;96782.63;;;11.44;79.89
64228;BME280;50546;49.146;10.616;2022-10-31T02:58:51;96781.91;;;11.30;80.55
64228;BME280;50546;49.146;10.616;2022-10-31T03:01:31;96779.03;;;11.26;79.49
64228;BME280;50546;49.146;10.616;2022-10-31T03:09:58;96777.34;;;11.08;79.73
64228;BME280;50546;49.146;10.616;2022-10-31T03:12:30;96779.16;;;10.99;80.27
64228;BME280;50546;49.146;10.616;2022-10-31T03:20:36;96781.84;;;10.76;80.55
64228;BME280;50546;49.146;10.616;2022-10-31T03:23:06;96775.66;;;10.76;81.40
64228;BME280;50546;49.146;10.616;2022-10-31T03:25:35;96780.56;;;10.74;81.18
64228;BME280;50546;49.146;10.616;2022-10-31T03:28:02;96784.97;;;10.70;81.31
64228;BME280;50546;49.146;10.616;2022-10-31T03:30:30;96782.59;;;10.68;82.06
64228;BME280;50546;49.146;10.616;2022-10-31T03:32:59;96784.69;;;10.71;80.77
64228;BME280;50546;49.146;10.616;2022-10-31T03:35:27;96786.69;;;10.66;81.08
64228;BME280;50546;49.146;10.616;2022-10-31T03:37:55;96786.25;;;10.72;81.23
64228;BME280;50546;49.146;10.616;2022-10-31T03:40:21;96777.06;;;10.73;80.30
64228;BME280;50546;49.146;10.616;2022-10-31T03:42:53;96776.88;;;10.70;80.61
64228;BME280;50546;49.146;10.616;2022-10-31T03:45:29;96776.22;;;10.64;81.43
64228;BME280;50546;49.146;10.616;2022-10-31T03:47:56;96785.31;;;10.54;80.71
64228;BME280;50546;49.146;10.616;2022-10-31T03:50:25;96785.13;;;10.51;81.13
64228;BME280;50546;49.146;10.616;2022-10-31T03:53:04;96782.25;;;10.47;81.37
64228;BME280;50546;49.146;10.616;2022-10-31T03:55:49;96786.31;;;10.45;82.27
64228;BME280;50546;49.146;10.616;2022-10-31T03:58:23;96788.53;;;10.43;81.56
64228;BME280;50546;49.146;10.616;2022-10-31T04:00:51;96781.72;;;10.45;82.05
64228;BME280;50546;49.146;10.616;2022-10-31T04:03:24;96782.72;;;10.49;80.89
64228;BME280;50546;49.146;10.616;2022-10-31T04:05:53;96774.41;;;10.59;80.26
64228;BME280;50546;49.146;10.616;2022-10-31T04:08:23;96773.25;;;10.52;80.33
64228;BME280;50546;49.146;10.616;2022-10-31T04:10:51;96784.34;;;10.36;81.48
64228;BME280;50546;49.146;10.616;2022-10-31T04:13:21;96791.03;;;10.39;81.27
64228;BME280;50546;49.146;10.616;2022-10-31T04:15:49;96790.72;;;10.41;81.64
64228;BME280;50546;49.146;10.616;2022-10-31T04:18:15;96793.94;;;10.43;81.02
64228;BME280;50546;49.146;10.616;2022-10-31T04:20:41;96788.38;;;10.25;82.78
64228;BME280;50546;49.146;10.616;2022-10-31T04:23:20;96789.88;;;10.31;82.48
64228;BME280;50546;49.146;10.616;2022-10-31T04:25:47;96781.72;;;10.45;82.01
64228;BME280;50546;49.146;10.616;2022-10-31T04:28:12;96780.75;;;10.27;83.45
64228;BME280;50546;49.146;10.616;2022-10-31T04:30:38;96790.34;;;10.33;82.55
64228;BME280;50546;49.146;10.616;2022-10-31T04:33:03;96793.41;;;10.41;82.04
64228;BME280;50546;49.146;10.616;2022-10-31T04:35:28;96776.97;;;10.42;81.94
64228;BME280;50546;49.146;10.616;2022-10-31T04:37:53;96785.00;;;10.56;81.62
64228;BME280;50546;49.146;10.616;2022-10-31T04:40:19;96785.97;;;10.60;80.70
64228;BME280;50546;49.146;10.616;2022-10-31T04:42:44;96782.88;;;10.67;80.62
64228;BME280;50546;49.146;10.616;2022-10-31T04:45:09;96781.97;;;10.71;81.22
64228;BME280;50546;49.146;10.616;2022-10-31T04:47:35;96783.16;;;10.79;80.42
64228;BME280;50546;49.146;10.616;2022-10-31T04:50:01;96769.22;;;10.85;80.27
64228;BME280;50546;49.146;10.616;2022-10-31T04:52:26;96768.09;;;11.00;79.34
64228;BME280;50546;49.146;10.616;2022-10-31T04:54:51;96771.22;;;10.94;79.37
64228;BME280;50546;49.146;10.616;2022-10-31T04:57:17;96769.97;;;10.77;79.73
64228;BME280;50546;49.146;10.616;2022-10-31T04:59:42;96771.91;;;10.63;80.50
64228;BME280;50546;49.146;10.616;2022-10-31T05:02:07;96765.75;;;10.49;79.92
64228;BME280;50546;49.146;10.616;2022-10-31T05:04:33;96775.34;;;10.41;80.35
64228;BME280;50546;49.146;10.616;2022-10-31T05:06:58;96776.97;;;10.42;80.31
64228;BME280;50546;49.146;10.616;2022-10-31T05:09:23;96776.59;;;10.35;79.94
64228;BME280;50546;49.146;10.616;2022-10-31T05:11:48;96774.00;;;10.30;79.33
64228;BME280;50546;49.146;10.616;2022-10-31T05:14:14;96778.75;;;10.19;80.51
64228;BME280;50546;49.146;10.616;2022-10-31T05:16:39;96780.38;;;10.06;80.40
64228;BME280;50546;49.146;10.616;2022-10-31T05:19:04;96777.56;;;10.11;80.95
64228;BME280;50546;49.146;10.616;2022-10-31T05:21:29;96772.97;;;10.12;81.58
64228;BME280;50546;49.146;10.616;2022-10-31T05:23:55;96774.38;;;10.23;79.98
64228;BME280;50546;49.146;10.616;2022-10-31T05:26:20;96769.41;;;10.30;79.68
64228;BME280;50546;49.146;10.616;2022-10-31T05:28:45;96761.91;;;10.27;80.10
64228;BME280;50546;49.146;10.616;2022-10-31T05:31:11;96772.22;;;10.25;79.98
64228;BME280;50546;49.146;10.616;2022-10-31T05:33:36;96765.63;;;10.04;79.95
64228;BME280;50546;49.146;10.616;2022-10-31T05:36:01;96767.91;;;9.97;81.20
64228;BME280;50546;49.146;10.616;2022-10-31T05:38:27;96770.53;;;9.88;82.36
64228;BME280;50546;49.146;10.616;2022-10-31T05:40:54;96759.84;;;9.97;82.56
64228;BME280;50546;49.146;10.616;2022-10-31T05:43:22;96758.25;;;10.09;81.99
64228;BME280;50546;49.146;10.616;2022-10-31T05:45:52;96751.66;;;10.16;81.66
64228;BME280;50546;49.146;10.616;2022-10-31T05:48:17;96751.44;;;10.12;81.24
64228;BME280;50546;49.146;10.616;2022-10-31T05:50:42;96752.69;;;10.06;80.65
64228;BME280;50546;49.146;10.616;2022-10-31T05:53:07;96757.28;;;9.92;79.89
64228;BME280;50546;49.146;10.616;2022-10-31T05:55:33;96764.25;;;9.93;80.78
64228;BME280;50546;49.146;10.616;2022-10-31T05:57:58;96757.06;;;9.88;79.69
64228;BME280;50546;49.146;10.616;2022-10-31T06:00:25;96760.56;;;9.88;79.65
64228;BME280;50546;49.146;10.616;2022-10-31T06:02:58;96766.94;;;10.06;79.72
64228;BME280;50546;49.146;10.616;2022-10-31T06:05:24;96767.41;;;9.95;80.08
64228;BME280;50546;49.146;10.616;2022-10-31T06:07:49;96765.94;;;10.02;80.90
64228;BME280;50546;49.146;10.616;2022-10-31T06:10:14;96762.63;;;10.05;81.02
64228;BME280;50546;49.146;10.616;2022-10-31T06:12:40;96766.41;;;10.04;80.62
64228;BME280;50546;49.146;10.616;2022-10-31T06:15:07;96769.22;;;9.99;80.27
64228;BME280;50546;49.146;10.616;2022-10-31T06:17:34;96768.63;;;9.88;81.39
64228;BME280;50546;49.146;10.616;2022-10-31T06:19:59;96766.63;;;9.94;81.20
64228;BME280;50546;49.146;10.616;2022-10-31T06:22:25;96769.03;;;9.96;80.42
64228;BME280;50546;49.146;10.616;2022-10-31T06:24:50;96762.63;;;10.05;80.68
64228;BME280;50546;49.146;10.616;2022-10-31T06:27:15;96767.81;;;10.02;80.12
64228;BME280;50546;49.146;10.616;2022-10-31T06:29:41;96760.63;;;9.97;80.25
64228;BME280;50546;49.146;10.616;2022-10-31T06:32:10;96760.63;;;9.83;81.57
64228;BME280;50546;49.146;10.616;2022-10-31T06:34:35;96765.34;;;9.92;81.87
64228;BME280;50546;49.146;10.616;2022-10-31T06:37:01;96757.22;;;10.05;81.01
64228;BME280;50546;49.146;10.616;2022-10-31T06:39:26;96758.75;;;10.25;81.45
64228;BME280;50546;49.146;10.616;2022-10-31T06:41:51;96752.16;;;10.68;80.49
64228;BME280;50546;49.146;10.616;2022-10-31T06:44:16;96757.31;;;11.00;78.05
64228;BME280;50546;49.146;10.616;2022-10-31T06:46:42;96752.59;;;11.15;77.51
64228;BME280;50546;49.146;10.616;2022-10-31T06:49:07;96758.88;;;11.24;77.08
64228;BME280;50546;49.146;10.616;2022-10-31T06:51:32;96763.31;;;11.28;77.14
64228;BME280;50546;49.146;10.616;2022-10-31T06:53:58;96763.66;;;11.27;76.64
64228;BME280;50546;49.146;10.616;2022-10-31T06:56:23;96758.09;;;11.32;76.87
64228;BME280;50546;49.146;10.616;2022-10-31T06:58:48;96759.75;;;11.42;75.75
64228;BME280;50546;49.146;10.616;2022-10-31T07:01:14;96756.03;;;11.60;75.00
64228;BME280;50546;49.146;10.616;2022-10-31T07:03:39;96762.44;;;11.73;74.47
64228;BME280;50546;49.146;10.616;2022-10-31T07:06:04;96764.31;;;11.72;73.80
64228;BME280;50546;49.146;10.616;2022-10-31T07:08:29;96760.19;;;11.66;73.63
64228;BME280;50546;49.146;10.616;2022-10-31T07:10:56;96764.31;;;11.64;74.14
64228;BME280;50546;49.146;10.616;2022-10-31T07:13:23;96762.38;;;11.55;73.73
64228;BME280;50546;49.146;10.616;2022-10-31T07:15:54;96769.13;;;11.44;74.65
64228;BME280;50546;49.146;10.616;2022-10-31T07:18:20;96762.59;;;11.37;75.26
64228;BME280;50546;49.146;10.616;2022-10-31T07:20:46;96770.63;;;11.28;75.74
64228;BME280;50546;49.146;10.616;2022-10-31T07:23:12;96760.00;;;11.31;75.25
64228;BME280;50546;49.146;10.616;2022-10-31T07:25:39;96758.91;;;11.32;75.31
64228;BME280;50546;49.146;10.616;2022-10-31T07:28:05;96764.66;;;11.40;74.60
64228;BME280;50546;49.146;10.616;2022-10-31T07:30:30;96771.72;;;11.58;74.18
64228;BME280;50546;49.146;10.616;2022-10-31T07:32:56;96768.16;;;11.80;74.29
64228;BME280;50546;49.146;10.616;2022-10-31T07:35:24;96763.47;;;11.94;73.69
64228;BME280;50546;49.146;10.616;2022-10-31T07:37:50;96769.38;;;12.05;73.53
64228;BME280;50546;49.146;10.616;2022-10-31T07:40:16;96764.31;;;12.03;73.44
64228;BME280;50546;49.146;10.616;2022-10-31T07:42:47;96778.75;;;11.99;74.30
64228;BME280;50546;49.146;10.616;2022-10-31T07:45:14;96769.72;;;12.03;74.44
64228;BME280;50546;49.146;10.616;2022-10-31T07:47:51;96776.53;;;12.01;74.37
64228;BME280;50546;49.146;10.616;2022-10-31T07:50:22;96766.22;;;12.03;74.31
64228;BME280;50546;49.146;10.616;2022-10-31T07:52:47;96768.88;;;11.94;74.70
64228;BME280;50546;49.146;10.616;2022-10-31T07:55:14;96769.19;;;11.93;74.36
64228;BME280;50546;49.146;10.616;2022-10-31T07:57:39;96773.97;;;11.96;75.22
64228;BME280;50546;49.146;10.616;2022-10-31T08:00:07;96766.69;;;12.05;75.69
64228;BME280;50546;49.146;10.616;2022-10-31T08:02:33;96767.81;;;12.13;75.65
64228;BME280;50546;49.146;10.616;2022-10-31T08:04:59;96766.91;;;12.17;75.49
64228;BME280;50546;49.146;10.616;2022-10-31T08:07:25;96768.81;;;12.25;75.54
64228;BME280;50546;49.146;10.616;2022-10-31T08:09:51;96763.41;;;12.34;75.42
64228;BME280;50546;49.146;10.616;2022-10-31T08:12:17;96765.19;;;12.39;75.42
64228;BME280;50546;49.146;10.616;2022-10-31T08:14:42;96763.91;;;12.45;75.64
64228;BME280;50546;49.146;10.616;2022-10-31T08:17:07;96760.75;;;12.60;75.68
64228;BME280;50546;49.146;10.616;2022-10-31T08:19:32;96755.34;;;12.69;75.22
64228;BME280;50546;49.146;10.616;2022-10-31T08:21:58;96755.81;;;12.80;75.37
64228;BME280;50546;49.146;10.616;2022-10-31T08:24:23;96750.41;;;12.88;75.00
64228;BME280;50546;49.146;10.616;2022-10-31T08:26:49;96762.00;;;13.06;75.08
64228;BME280;50546;49.146;10.616;2022-10-31T08:29:14;96754.97;;;13.22;74.97
64228;BME280;50546;49.146;10.616;2022-10-31T08:31:41;96748.28;;;13.29;74.48
64228;BME280;50546;49.146;10.616;2022-10-31T08:34:07;96754.97;;;13.40;74.11
64228;BME280;50546;49.146;10.616;2022-10-31T08:36:32;96747.59;;;13.49;74.61
64228;BME280;50546;49.146;10.616;2022-10-31T08:38:57;96749.78;;;13.64;73.95
64228;BME280;50546;49.146;10.616;2022-10-31T08:41:22;96754.69;;;13.71;73.66
64228;BME280;50546;49.146;10.616;2022-10-31T08:43:48;96751.91;;;13.88;73.93
64228;BME280;50546;49.146;10.616;2022-10-31T08:46:13;96742.63;;;13.98;74.05
64228;BME280;50546;49.146;10.616;2022-10-31T08:48:39;96743.59;;;14.23;73.94
64228;BME280;50546;49.146;10.616;2022-10-31T08:51:04;96748.84;;;14.49;73.58
64228;BME280;50546;49.146;10.616;2022-10-31T08:53:30;96745.63;;;14.56;72.34
64228;BME280;50546;49.146;10.616;2022-10-31T08:55:56;96743.03;;;14.59;72.73
64228;BME280;50546;49.146;10.616;2022-10-31T08:58:23;96740.06;;;14.52;73.05
64228;BME280;50546;49.146;10.616;2022-10-31T09:00:51;96735.03;;;14.63;73.99
64228;BME280;50546;49.146;10.616;2022-10-31T09:05:44;96730.47;;;14.76;74.38
64228;BME280;50546;49.146;10.616;2022-10-31T09:08:11;96725.97;;;14.80;73.74
64228;BME280;50546;49.146;10.616;2022-10-31T09:10:37;96715.41;;;14.99;73.95
64228;BME280;50546;49.146;10.616;2022-10-31T09:13:16;96717.91;;;15.25;73.30
64228;BME280;50546;49.146;10.616;2022-10-31T09:15:43;96715.97;;;15.38;73.95
64228;BME280;50546;49.146;10.616;2022-10-31T09:18:10;96718.94;;;15.57;72.83
64228;BME280;50546;49.146;10.616;2022-10-31T09:20:36;96714.78;;;15.72;71.88
64228;BME280;50546;49.146;10.616;2022-10-31T09:23:08;96715.03;;;15.79;71.80
64228;BME280;50546;49.146;10.616;2022-10-31T09:25:34;96719.91;;;15.86;72.09
64228;BME280;50546;49.146;10.616;2022-10-31T09:28:02;96711.53;;;16.03;71.90
64228;BME280;50546;49.146;10.616;2022-10-31T09:30:29;96717.31;;;16.02;71.83
64228;BME280;50546;49.146;10.616;2022-10-31T09:33:00;96712.31;;;16.16;73.04
64228;BME280;50546;49.146;10.616;2022-10-31T09:35:26;96715.00;;;16.28;72.49
64228;BME280;50546;49.146;10.616;2022-10-31T09:37:56;96715.91;;;16.32;72.58
64228;BME280;50546;49.146;10.616;2022-10-31T09:40:23;96720.41;;;16.53;72.09
64228;BME280;50546;49.146;10.616;2022-10-31T09:46:05;96708.16;;;16.87;71.82
64228;BME280;50546;49.146;10.616;2022-10-31T09:51:30;96708.28;;;17.35;70.45
64228;BME280;50546;49.146;10.616;2022-10-31T09:56:42;96704.97;;;17.73;70.50
64228;BME280;50546;49.146;10.616;2022-10-31T09:59:17;96694.97;;;17.77;70.30
64228;BME280;50546;49.146;10.616;2022-10-31T10:04:53;96700.97;;;18.18;70.02
64228;BME280;50546;49.146;10.616;2022-10-31T10:07:42;96696.13;;;18.27;70.17
64228;BME280;50546;49.146;10.616;2022-10-31T10:26:37;96682.53;;;18.85;70.32
64228;BME280;50546;49.146;10.616;2022-10-31T10:29:21;96683.34;;;19.09;69.67
64228;BME280;50546;49.146;10.616;2022-10-31T10:31:51;96679.63;;;19.40;69.63
64228;BME280;50546;49.146;10.616;2022-10-31T10:34:31;96680.50;;;19.67;68.50
64228;BME280;50546;49.146;10.616;2022-10-31T10:37:01;96670.75;;;19.92;67.32
64228;BME280;50546;49.146;10.616;2022-10-31T10:39:38;96671.22;;;19.98;67.33
64228;BME280;50546;49.146;10.616;2022-10-31T10:42:14;96672.16;;;20.09;67.06
64228;BME280;50546;49.146;10.616;2022-10-31T10:44:59;96665.59;;;20.14;66.59
64228;BME280;50546;49.146;10.616;2022-10-31T10:47:46;96664.53;;;19.95;67.01
64228;BME280;50546;49.146;10.616;2022-10-31T10:50:18;96661.13;;;20.02;67.12
64228;BME280;50546;49.146;10.616;2022-10-31T10:56:02;96649.47;;;20.35;66.37
64228;BME280;50546;49.146;10.616;2022-10-31T10:58:29;96647.72;;;20.50;66.62
64228;BME280;50546;49.146;10.616;2022-10-31T11:00:54;96642.13;;;20.73;65.48
64228;BME280;50546;49.146;10.616;2022-10-31T11:03:20;96635.88;;;21.10;64.87
64228;BME280;50546;49.146;10.616;2022-10-31T11:05:56;96633.53;;;21.12;63.11
64228;BME280;50546;49.146;10.616;2022-10-31T11:08:31;96627.25;;;21.08;64.27
64228;BME280;50546;49.146;10.616;2022-10-31T11:11:02;96616.63;;;21.44;63.51
64228;BME280;50546;49.146;10.616;2022-10-31T11:13:29;96621.47;;;21.61;62.61
64228;BME280;50546;49.146;10.616;2022-10-31T11:16:00;96615.00;;;21.87;61.33
64228;BME280;50546;49.146;10.616;2022-10-31T11:18:29;96613.81;;;21.84;62.43
64228;BME280;50546;49.146;10.616;2022-10-31T11:20:58;96609.22;;;22.06;62.10
64228;BME280;50546;49.146;10.616;2022-10-31T11:23:25;96600.75;;;22.29;61.59
64228;BME280;50546;49.146;10.616;2022-10-31T11:25:56;96604.38;;;22.51;60.91
64228;BME280;50546;49.146;10.616;2022-10-31T11:28:21;96610.25;;;22.50;61.11
64228;BME280;50546;49.146;10.616;2022-10-31T11:31:01;96599.56;;;22.27;59.71
64228;BME280;50546;49.146;10.616;2022-10-31T11:33:32;96606.72;;;22.46;60.23
64228;BME280;50546;49.146;10.616;2022-10-31T11:36:00;96599.63;;;22.38;60.41
64228;BME280;50546;49.146;10.616;2022-10-31T11:38:32;96607.56;;;22.64;59.39
64228;BME280;50546;49.146;10.616;2022-10-31T11:41:07;96597.81;;;22.85;58.58
64228;BME280;50546;49.146;10.616;2022-10-31T11:43:33;96601.78;;;22.94;58.10
64228;BME280;50546;49.146;10.616;2022-10-31T11:45:59;96600.88;;;22.65;58.55
64228;BME280;50546;49.146;10.616;2022-10-31T11:48:25;96591.09;;;22.68;57.94
64228;BME280;50546;49.146;10.616;2022-10-31T11:50:56;96585.09;;;22.33;58.57
64228;BME280;50546;49.146;10.616;2022-10-31T11:53:30;96582.78;;;22.50;58.09
64228;BME280;50546;49.146;10.616;2022-10-31T11:56:16;96583.22;;;22.55;58.01
64228;BME280;50546;49.146;10.616;2022-10-31T11:58:42;96570.28;;;22.63;59.23
64228;BME280;50546;49.146;10.616;2022-10-31T12:01:24;96571.13;;;22.89;58.27
64228;BME280;50546;49.146;10.616;2022-10-31T12:04:06;96567.97;;;22.79;58.55
64228;BME280;50546;49.146;10.616;2022-10-31T12:06:39;96565.69;;;22.96;57.89
64228;BME280;50546;49.146;10.616;2022-10-31T12:09:21;96554.28;;;22.94;57.51
64228;BME280;50546;49.146;10.616;2022-10-31T12:14:43;96556.19;;;22.79;58.66
64228;BME280;50546;49.146;10.616;2022-10-31T12:20:06;96553.72;;;22.34;58.60
64228;BME280;50546;49.146;10.616;2022-10-31T12:25:28;96548.31;;;22.67;58.42
64228;BME280;50546;49.146;10.616;2022-10-31T12:30:47;96536.94;;;22.68;59.13
64228;BME280;50546;49.146;10.616;2022-10-31T12:36:20;96521.66;;;22.74;59.29
64228;BME280;50546;49.146;10.616;2022-10-31T12:39:00;96523.63;;;22.81;58.79
64228;BME280;50546;49.146;10.616;2022-10-31T12:41:31;96516.16;;;22.85;58.96
64228;BME280;50546;49.146;10.616;2022-10-31T12:58:03;96490.38;;;24.31;56.37
64228;BME280;50546;49.146;10.616;2022-10-31T13:00:37;96487.75;;;25.32;54.84
64228;BME280;50546;49.146;10.616;2022-10-31T13:03:26;96488.59;;;26.04;51.87
64228;BME280;50546;49.146;10.616;2022-10-31T13:05:59;96478.16;;;25.85;50.90
64228;BME280;50546;49.146;10.616;2022-10-31T13:11:18;96468.47;;;27.82;46.39
64228;BME280;50546;49.146;10.616;2022-10-31T13:16:34;96465.94;;;29.17;43.09
64228;BME280;50546;49.146;10.616;2022-10-31T13:19:16;96465.03;;;28.71;41.88
64228;BME280;50546;49.146;10.616;2022-10-31T13:21:58;96464.00;;;29.30;42.48
64228;BME280;50546;49.146;10.616;2022-10-31T13:24:33;96458.09;;;28.95;43.08
64228;BME280;50546;49.146;10.616;2022-10-31T13:27:02;96465.78;;;28.55;43.68
64228;BME280;50546;49.146;10.616;2022-10-31T13:29:33;96460.56;;;27.81;45.19
64228;BME280;50546;49.146;10.616;2022-10-31T13:32:09;96456.50;;;26.72;46.99
64228;BME280;50546;49.146;10.616;2022-10-31T13:34:55;96459.22;;;25.49;48.49
64228;BME280;50546;49.146;10.616;2022-10-31T13:42:41;96441.53;;;24.46;52.12
64228;BME280;50546;49.146;10.616;2022-10-31T13:45:19;96454.53;;;22.72;55.79
64228;BME280;50546;49.146;10.616;2022-10-31T13:47:55;96446.50;;;21.99;57.85
64228;BME280;50546;49.146;10.616;2022-10-31T13:52:47;96450.03;;;21.96;58.51
64228;BME280;50546;49.146;10.616;2022-10-31T13:56:33;96448.28;;;21.55;59.73
64228;BME280;50546;49.146;10.616;2022-10-31T13:58:28;96440.31;;;21.32;60.58
64228;BME280;50546;49.146;10.616;2022-10-31T14:03:36;96436.69;;;20.66;62.60
64228;BME280;50546;49.146;10.616;2022-10-31T14:06:03;96439.97;;;20.82;62.68
64228;BME280;50546;49.146;10.616;2022-10-31T14:08:32;96440.97;;;21.15;62.03
64228;BME280;50546;49.146;10.616;2022-10-31T14:10:59;96435.75;;;20.96;61.93
64228;BME280;50546;49.146;10.616;2022-10-31T14:13:43;96432.94;;;20.85;62.11
64228;BME280;50546;49.146;10.616;2022-10-31T14:16:19;96433.19;;;20.28;63.36
64228;BME280;50546;49.146;10.616;2022-10-31T14:18:50;96430.69;;;20.12;63.99
64228;BME280;50546;49.146;10.616;2022-10-31T14:23:47;96414.94;;;19.65;64.89
64228;BME280;50546;49.146;10.616;2022-10-31T14:31:42;96403.91;;;19.31;64.66
64228;BME280;50546;49.146;10.616;2022-10-31T14:44:54;96405.41;;;18.98;64.94
64228;BME280;50546;49.146;10.616;2022-10-31T14:47:58;96403.56;;;19.06;64.70
64228;BME280;50546;49.146;10.616;2022-10-31T14:53:33;96397.00;;;18.84;64.64
64228;BME280;50546;49.146;10.616;2022-10-31T14:55:59;96378.59;;;18.78;64.73
64228;BME280;50546;49.146;10.616;2022-10-31T14:58:37;96383.78;;;18.86;64.39
64228;BME280;50546;49.146;10.616;2022-10-31T15:01:03;96376.88;;;18.92;64.21
64228;BME280;50546;49.146;10.616;2022-10-31T15:03:40;96377.91;;;18.84;64.19
64228;BME280;50546;49.146;10.616;2022-10-31T15:06:13;96380.06;;;18.71;64.65
64228;BME280;50546;49.146;10.616;2022-10-31T15:08:44;96376.72;;;18.82;64.50
64228;BME280;50546;49.146;10.616;2022-10-31T15:13:42;96374.63;;;19.28;63.25
64228;BME280;50546;49.146;10.616;2022-10-31T15:16:10;96374.19;;;19.26;62.65
64228;BME280;50546;49.146;10.616;2022-10-31T15:18:38;96382.84;;;19.32;62.68
64228;BME280;50546;49.146;10.616;2022-10-31T15:21:09;96378.72;;;19.15;62.58